Time;durP1;ratioP1;P1;durP2;ratioP2;P2;SDS_P1;SDS_P2;PMS_P1;PMS_P2;Temp;Humidity;BMP_temperature;BMP_pressure;BME280_temperature;BME280_humidity;BME280_pressure;Samples;Min_cycle;Max_cycle;Signal;HPM_P1;HPM_P2
2023/05/18 00:01:52;;;;;;;;;;;13.40;99.90;;;;;;5094096;28;19988;-64
2023/05/18 00:04:22;;;;;;;;;;;13.50;99.90;;;;;;5094155;28;19982;-61
2023/05/18 00:06:57;;;;;;;;;;;13.40;99.90;;;;;;5094088;28;20009;-64
2023/05/18 00:09:24;;;;;;;;;;;13.30;99.90;;;;;;5094076;28;19985;-63
2023/05/18 00:11:50;;;;;;;;;;;13.30;99.90;;;;;;5093987;28;20042;-63
2023/05/18 00:14:16;;;;;;;;;;;13.20;99.90;;;;;;5093836;28;19985;-62
2023/05/18 00:16:41;;;;;;;;;;;13.30;99.90;;;;;;5093898;28;20454;-61
2023/05/18 00:19:07;;;;;;;;;;;13.40;99.90;;;;;;5093880;28;19985;-61
2023/05/18 00:21:34;;;;;;;;;;;13.50;99.90;;;;;;5093904;28;20064;-60
2023/05/18 00:24:00;;;;;;;;;;;13.50;99.90;;;;;;5094078;28;20075;-61
2023/05/18 00:26:26;;;;;;;;;;;13.60;99.90;;;;;;5093736;28;20046;-62
2023/05/18 00:28:51;;;;;;;;;;;13.60;99.90;;;;;;5093638;28;20046;-62
2023/05/18 00:31:17;;;;;;;;;;;13.60;99.90;;;;;;5093626;28;20439;-63
2023/05/18 00:33:44;;;;;;;;;;;13.60;99.90;;;;;;5093715;28;20001;-63
2023/05/18 00:36:10;;;;;;;;;;;13.70;99.90;;;;;;5094064;28;19985;-62
2023/05/18 00:38:35;;;;;;;;;;;13.60;99.90;;;;;;5093452;28;20414;-63
2023/05/18 00:41:01;;;;;;;;;;;13.60;99.90;;;;;;5093715;28;20024;-63
2023/05/18 00:43:27;;;;;;;;;;;13.60;99.90;;;;;;5093488;28;19981;-63
2023/05/18 00:45:52;;;;;;;;;;;13.60;99.90;;;;;;5093531;28;20005;-64
2023/05/18 00:48:18;;;;;;;;;;;13.60;99.90;;;;;;5093956;28;20054;-62
2023/05/18 00:50:43;;;;;;;;;;;13.50;99.90;;;;;;5092376;28;19985;-64
2023/05/18 00:53:11;;;;;;;;;;;13.40;99.90;;;;;;5093578;28;19981;-60
2023/05/18 00:55:37;;;;;;;;;;;13.30;99.90;;;;;;5093806;28;19988;-64
2023/05/18 00:58:04;;;;;;;;;;;13.20;99.90;;;;;;5093314;28;20358;-62
2023/05/18 01:00:30;;;;;;;;;;;13.20;99.90;;;;;;5093559;28;19982;-62
2023/05/18 01:02:56;;;;;;;;;;;13.20;99.90;;;;;;5093404;28;19984;-64
2023/05/18 01:05:21;;;;;;;;;;;13.30;99.90;;;;;;5093443;28;19988;-60
2023/05/18 01:07:47;;;;;;;;;;;13.30;99.90;;;;;;5093470;28;19985;-62
2023/05/18 01:10:14;;;;;;;;;;;13.40;99.90;;;;;;5093323;28;19989;-62
2023/05/18 01:12:42;;;;;;;;;;;13.40;99.90;;;;;;5093169;28;20431;-60
2023/05/18 01:15:08;;;;;;;;;;;13.40;99.90;;;;;;5093418;28;20072;-63
2023/05/18 01:17:39;;;;;;;;;;;13.40;99.90;;;;;;5093507;28;20013;-64
2023/05/18 01:20:23;;;;;;;;;;;13.40;99.90;;;;;;5093619;28;19985;-61
2023/05/18 01:23:12;;;;;;;;;;;13.50;99.90;;;;;;5091932;28;20415;-64
2023/05/18 01:25:39;;;;;;;;;;;13.50;99.90;;;;;;5093179;28;20111;-62
2023/05/18 01:28:08;;;;;;;;;;;13.50;99.90;;;;;;5093309;28;19985;-61
2023/05/18 01:30:38;;;;;;;;;;;13.50;99.90;;;;;;5095981;28;19985;-60
2023/05/18 01:33:10;;;;;;;;;;;13.50;99.90;;;;;;5096906;28;19997;-62
2023/05/18 01:35:36;;;;;;;;;;;13.30;99.90;;;;;;5096768;28;19992;-61
2023/05/18 01:38:02;;;;;;;;;;;13.20;99.90;;;;;;5096812;28;20021;-64
2023/05/18 01:40:33;;;;;;;;;;;13.10;99.90;;;;;;5097085;28;19985;-59
2023/05/18 01:43:02;;;;;;;;;;;13.00;99.90;;;;;;5096517;28;19988;-64
2023/05/18 01:45:29;;;;;;;;;;;13.00;99.90;;;;;;5096625;28;19992;-62
2023/05/18 01:47:55;;;;;;;;;;;13.00;99.90;;;;;;5096773;28;19981;-64
2023/05/18 01:50:25;;;;;;;;;;;12.90;99.90;;;;;;5096620;28;20034;-62
2023/05/18 01:53:00;;;;;;;;;;;12.80;99.90;;;;;;5096644;28;20066;-65
2023/05/18 01:55:28;;;;;;;;;;;12.70;99.90;;;;;;5096272;28;20408;-61
2023/05/18 01:57:54;;;;;;;;;;;12.80;99.90;;;;;;5096780;28;20423;-62
2023/05/18 02:00:21;;;;;;;;;;;12.70;99.90;;;;;;5096461;28;20424;-62
2023/05/18 02:02:46;;;;;;;;;;;12.70;99.90;;;;;;5096631;28;20028;-61
2023/05/18 02:05:12;;;;;;;;;;;12.70;99.90;;;;;;5096266;28;20008;-64
2023/05/18 02:07:38;;;;;;;;;;;12.60;99.90;;;;;;5096325;28;20005;-61
2023/05/18 02:10:05;;;;;;;;;;;12.50;99.90;;;;;;5096029;28;20081;-62
2023/05/18 02:12:30;;;;;;;;;;;12.50;99.90;;;;;;5096181;28;20443;-64
2023/05/18 02:14:57;;;;;;;;;;;12.40;99.90;;;;;;5096292;28;20072;-63
2023/05/18 02:17:24;;;;;;;;;;;12.50;99.90;;;;;;5096033;28;19985;-62
2023/05/18 02:19:50;;;;;;;;;;;12.50;99.90;;;;;;5096037;28;20071;-60
2023/05/18 02:22:16;;;;;;;;;;;12.50;99.90;;;;;;5096046;28;20036;-62
2023/05/18 02:24:41;;;;;;;;;;;12.50;99.90;;;;;;5095836;28;19989;-61
2023/05/18 02:27:07;;;;;;;;;;;12.60;99.90;;;;;;5095984;28;20009;-60
2023/05/18 02:29:32;;;;;;;;;;;12.60;99.90;;;;;;5096045;28;19981;-62
2023/05/18 02:31:58;;;;;;;;;;;12.60;99.90;;;;;;5096020;28;20062;-62
2023/05/18 02:34:24;;;;;;;;;;;12.60;99.90;;;;;;5096013;28;20359;-62
2023/05/18 02:36:49;;;;;;;;;;;12.40;99.90;;;;;;5096216;28;20012;-62
2023/05/18 02:39:15;;;;;;;;;;;12.50;99.90;;;;;;5095283;28;20025;-61
2023/05/18 02:41:40;;;;;;;;;;;12.50;99.90;;;;;;5094355;28;19988;-63
2023/05/18 02:44:06;;;;;;;;;;;12.50;99.90;;;;;;5095545;28;19991;-63
2023/05/18 02:46:32;;;;;;;;;;;12.50;99.90;;;;;;5095423;28;20008;-62
2023/05/18 02:48:57;;;;;;;;;;;12.40;99.90;;;;;;5095506;28;19981;-63
2023/05/18 02:51:23;;;;;;;;;;;12.40;99.90;;;;;;5095686;28;19992;-63
2023/05/18 02:53:50;;;;;;;;;;;12.60;99.90;;;;;;5095247;28;19981;-64
2023/05/18 02:56:16;;;;;;;;;;;12.60;99.90;;;;;;5095421;28;20435;-61
2023/05/18 02:58:42;;;;;;;;;;;12.50;99.90;;;;;;5095259;28;19981;-63
2023/05/18 03:01:08;;;;;;;;;;;12.60;99.90;;;;;;5095211;28;20076;-64
2023/05/18 03:03:33;;;;;;;;;;;12.60;99.90;;;;;;5095484;28;19985;-64
2023/05/18 03:06:01;;;;;;;;;;;12.40;99.90;;;;;;5095020;28;20005;-63
2023/05/18 03:08:27;;;;;;;;;;;12.30;99.90;;;;;;5095073;28;19998;-62
2023/05/18 03:10:53;;;;;;;;;;;12.30;99.90;;;;;;5095038;28;20051;-60
2023/05/18 03:13:19;;;;;;;;;;;12.30;99.90;;;;;;5095238;28;19989;-63
2023/05/18 03:15:44;;;;;;;;;;;12.30;99.90;;;;;;5095251;28;20444;-60
2023/05/18 03:18:11;;;;;;;;;;;12.40;99.90;;;;;;5095217;28;19985;-62
2023/05/18 03:20:36;;;;;;;;;;;12.40;99.90;;;;;;5095124;28;19988;-61
2023/05/18 03:23:02;;;;;;;;;;;12.30;99.90;;;;;;5094694;28;20042;-60
2023/05/18 03:25:29;;;;;;;;;;;12.20;99.90;;;;;;5094684;28;19985;-61
2023/05/18 03:27:54;;;;;;;;;;;12.20;99.90;;;;;;5094842;28;20447;-60
2023/05/18 03:30:20;;;;;;;;;;;12.20;99.90;;;;;;5094614;28;20076;-63
2023/05/18 03:32:46;;;;;;;;;;;12.20;99.90;;;;;;5094677;28;20062;-61
2023/05/18 03:35:12;;;;;;;;;;;12.20;99.90;;;;;;5094665;28;20485;-64
2023/05/18 03:37:37;;;;;;;;;;;12.10;99.90;;;;;;5094144;28;20017;-59
2023/05/18 03:40:13;;;;;;;;;;;12.20;99.90;;;;;;5094715;28;20076;-59
2023/05/18 03:42:40;;;;;;;;;;;12.20;99.90;;;;;;5094478;28;19980;-62
2023/05/18 03:45:07;;;;;;;;;;;12.30;99.90;;;;;;5094487;28;19989;-61
2023/05/18 03:47:32;;;;;;;;;;;12.30;99.90;;;;;;5094748;28;20370;-64
2023/05/18 03:49:58;;;;;;;;;;;12.40;99.90;;;;;;5094687;28;19985;-61
2023/05/18 03:52:23;;;;;;;;;;;12.40;99.90;;;;;;5093644;28;20006;-64
2023/05/18 03:54:49;;;;;;;;;;;12.30;99.90;;;;;;5094428;28;19987;-62
2023/05/18 03:57:16;;;;;;;;;;;12.20;99.90;;;;;;5094249;28;19982;-61
2023/05/18 03:59:42;;;;;;;;;;;12.20;99.90;;;;;;5094131;28;19985;-63
2023/05/18 04:02:07;;;;;;;;;;;12.30;99.90;;;;;;5094160;28;19985;-61
2023/05/18 04:04:33;;;;;;;;;;;12.30;99.90;;;;;;5094265;28;19981;-60
2023/05/18 04:07:01;;;;;;;;;;;12.30;99.90;;;;;;5093779;28;20027;-60
2023/05/18 04:09:27;;;;;;;;;;;12.30;99.90;;;;;;5094210;28;20028;-64
2023/05/18 04:11:52;;;;;;;;;;;12.30;99.90;;;;;;5094067;28;19982;-60
2023/05/18 04:14:19;;;;;;;;;;;12.30;99.90;;;;;;5093826;28;19985;-60
2023/05/18 04:16:45;;;;;;;;;;;12.20;99.90;;;;;;5093927;28;20040;-60
2023/05/18 04:19:12;;;;;;;;;;;12.30;99.90;;;;;;5094047;28;20020;-64
2023/05/18 04:21:38;;;;;;;;;;;12.20;99.90;;;;;;5093633;28;19988;-62
2023/05/18 04:24:05;;;;;;;;;;;12.10;99.90;;;;;;5094294;28;20339;-64
2023/05/18 04:26:33;;;;;;;;;;;12.10;99.90;;;;;;5093845;28;20012;-62
2023/05/18 04:28:59;;;;;;;;;;;12.20;99.90;;;;;;5093757;28;19986;-63
2023/05/18 04:31:28;;;;;;;;;;;12.30;99.90;;;;;;5093992;28;19996;-61
2023/05/18 04:33:54;;;;;;;;;;;12.30;99.90;;;;;;5093634;28;20004;-63
2023/05/18 04:36:19;;;;;;;;;;;12.30;99.90;;;;;;5093501;28;19981;-63
2023/05/18 04:38:45;;;;;;;;;;;12.30;99.90;;;;;;5093551;28;20387;-62
2023/05/18 04:41:11;;;;;;;;;;;12.30;99.90;;;;;;5093642;28;20349;-63
2023/05/18 04:43:36;;;;;;;;;;;12.30;99.90;;;;;;5093962;28;20015;-63
2023/05/18 04:46:02;;;;;;;;;;;12.20;99.90;;;;;;5093491;28;20073;-62
2023/05/18 04:48:28;;;;;;;;;;;12.20;99.90;;;;;;5093693;28;19988;-61
2023/05/18 04:50:54;;;;;;;;;;;12.20;99.90;;;;;;5093749;28;19985;-63
2023/05/18 04:53:23;;;;;;;;;;;12.30;99.90;;;;;;5093785;28;20028;-60
2023/05/18 04:55:48;;;;;;;;;;;12.20;99.90;;;;;;5093558;28;19985;-61
2023/05/18 04:58:14;;;;;;;;;;;12.30;99.90;;;;;;5093540;28;20035;-62
2023/05/18 05:00:40;;;;;;;;;;;12.30;99.90;;;;;;5093230;28;20031;-64
2023/05/18 05:03:05;;;;;;;;;;;12.30;99.90;;;;;;5092131;28;19993;-62
2023/05/18 05:05:31;;;;;;;;;;;12.30;99.90;;;;;;5091865;28;20007;-61
2023/05/18 05:07:57;;;;;;;;;;;12.20;99.90;;;;;;5084062;28;19986;-61
2023/05/18 05:10:23;;;;;;;;;;;12.20;99.90;;;;;;5090876;28;20375;-64
2023/05/18 05:12:49;;;;;;;;;;;12.20;99.90;;;;;;5096415;28;19981;-63
2023/05/18 05:15:15;;;;;;;;;;;12.00;99.90;;;;;;5096587;28;19981;-63
2023/05/18 05:17:40;;;;;;;;;;;12.10;99.90;;;;;;5096807;28;20046;-64
2023/05/18 05:20:06;;;;;;;;;;;12.20;99.90;;;;;;5096516;28;20439;-65
2023/05/18 05:22:32;;;;;;;;;;;12.20;99.90;;;;;;5096519;28;20079;-64
2023/05/18 05:24:57;;;;;;;;;;;12.20;99.90;;;;;;5095585;28;20038;-63
2023/05/18 05:27:25;;;;;;;;;;;12.30;99.90;;;;;;5086229;28;20359;-63
2023/05/18 05:29:50;;;;;;;;;;;12.40;99.90;;;;;;5096221;28;20439;-62
2023/05/18 05:32:16;;;;;;;;;;;12.40;99.90;;;;;;5096209;28;20034;-61
2023/05/18 05:34:46;;;;;;;;;;;12.50;99.90;;;;;;5095821;28;19981;-61
2023/05/18 05:37:12;;;;;;;;;;;12.50;99.90;;;;;;5095480;28;19981;-65
2023/05/18 05:39:38;;;;;;;;;;;12.40;99.90;;;;;;5096104;28;20076;-62
2023/05/18 05:42:04;;;;;;;;;;;12.40;99.90;;;;;;5096452;28;19981;-65
2023/05/18 05:44:30;;;;;;;;;;;12.40;99.90;;;;;;5096666;28;19986;-62
2023/05/18 05:46:55;;;;;;;;;;;12.20;99.90;;;;;;5096047;28;20061;-62
2023/05/18 05:49:21;;;;;;;;;;;12.20;99.90;;;;;;5095457;28;19996;-63
2023/05/18 05:51:47;;;;;;;;;;;12.20;99.90;;;;;;5095583;28;19996;-67
2023/05/18 05:54:12;;;;;;;;;;;12.30;99.90;;;;;;5085699;28;19986;-64
2023/05/18 05:56:38;;;;;;;;;;;12.30;99.90;;;;;;5093942;28;20508;-65
2023/05/18 05:59:03;;;;;;;;;;;12.40;99.90;;;;;;5075682;28;20352;-65
2023/05/18 06:01:29;;;;;;;;;;;12.40;99.90;;;;;;5092313;28;20354;-63
2023/05/18 06:03:54;;;;;;;;;;;12.40;99.90;;;;;;5095201;28;19991;-59
2023/05/18 06:06:20;;;;;;;;;;;12.50;99.90;;;;;;5095627;28;20009;-63
2023/05/18 06:08:46;;;;;;;;;;;12.50;99.90;;;;;;5094806;28;19985;-62
2023/05/18 06:11:11;;;;;;;;;;;12.40;99.90;;;;;;5095161;28;19980;-66
2023/05/18 06:13:37;;;;;;;;;;;12.40;99.90;;;;;;5096070;28;20454;-66
2023/05/18 06:16:03;;;;;;;;;;;12.40;99.90;;;;;;5088784;28;19985;-63
2023/05/18 06:18:28;;;;;;;;;;;12.40;99.90;;;;;;5093768;28;19981;-61
2023/05/18 06:20:54;;;;;;;;;;;12.50;99.90;;;;;;5095713;28;19985;-61
2023/05/18 06:23:21;;;;;;;;;;;12.50;99.90;;;;;;5090295;28;20046;-62
2023/05/18 06:25:47;;;;;;;;;;;12.60;99.90;;;;;;5089897;28;20498;-61
2023/05/18 06:28:13;;;;;;;;;;;12.70;99.90;;;;;;5100694;28;20519;-62
2023/05/18 06:30:39;;;;;;;;;;;12.80;99.90;;;;;;5090990;28;20083;-62
2023/05/18 06:33:05;;;;;;;;;;;12.80;99.90;;;;;;5081897;28;19985;-60
2023/05/18 06:35:31;;;;;;;;;;;12.90;99.90;;;;;;5096906;28;20324;-69
2023/05/18 06:37:57;;;;;;;;;;;12.90;99.90;;;;;;5092206;28;20062;-62
2023/05/18 06:40:23;;;;;;;;;;;12.90;99.90;;;;;;5094939;28;19985;-61
2023/05/18 06:42:49;;;;;;;;;;;13.00;99.90;;;;;;5093430;28;19985;-62
2023/05/18 06:45:15;;;;;;;;;;;13.00;99.90;;;;;;5093064;28;19992;-62
2023/05/18 06:47:41;;;;;;;;;;;13.10;99.90;;;;;;5088136;28;20511;-63
2023/05/18 06:50:07;;;;;;;;;;;13.10;99.90;;;;;;5085642;28;20080;-63
2023/05/18 06:52:33;;;;;;;;;;;13.10;99.90;;;;;;5085773;28;19989;-63
2023/05/18 06:55:00;;;;;;;;;;;13.00;99.90;;;;;;5076645;28;20036;-66
2023/05/18 06:57:25;;;;;;;;;;;12.80;99.90;;;;;;5072436;28;19996;-63
2023/05/18 06:59:52;;;;;;;;;;;12.80;99.90;;;;;;5074490;28;20102;-63
2023/05/18 07:02:21;;;;;;;;;;;12.80;99.90;;;;;;5088792;28;20120;-64
2023/05/18 07:04:47;;;;;;;;;;;12.80;99.90;;;;;;5087334;28;19985;-64
2023/05/18 07:07:13;;;;;;;;;;;12.90;99.90;;;;;;5079706;28;20112;-65
2023/05/18 07:09:40;;;;;;;;;;;12.90;99.90;;;;;;5090911;28;20084;-63
2023/05/18 07:12:06;;;;;;;;;;;12.80;99.90;;;;;;5091025;28;20036;-63
2023/05/18 07:14:32;;;;;;;;;;;12.60;99.90;;;;;;5093242;28;20047;-63
2023/05/18 07:16:57;;;;;;;;;;;12.70;99.90;;;;;;5090334;28;19985;-64
2023/05/18 07:19:23;;;;;;;;;;;12.70;99.90;;;;;;5091291;28;19985;-64
2023/05/18 07:21:48;;;;;;;;;;;12.80;99.90;;;;;;5091477;28;20030;-63
2023/05/18 07:24:14;;;;;;;;;;;12.80;99.90;;;;;;5091456;28;19989;-61
2023/05/18 07:26:40;;;;;;;;;;;12.80;99.90;;;;;;5089811;28;20344;-64
2023/05/18 07:29:05;;;;;;;;;;;12.70;99.90;;;;;;5090588;28;19992;-63
2023/05/18 07:31:32;;;;;;;;;;;12.80;99.90;;;;;;5091264;28;20367;-62
2023/05/18 07:33:58;;;;;;;;;;;12.90;99.90;;;;;;5099261;28;19985;-64
2023/05/18 07:36:24;;;;;;;;;;;13.00;99.90;;;;;;5096112;28;19989;-62
2023/05/18 07:38:53;;;;;;;;;;;12.90;99.90;;;;;;5080999;28;20379;-60
2023/05/18 07:41:20;;;;;;;;;;;13.00;99.90;;;;;;5074084;28;20008;-62
2023/05/18 07:43:45;;;;;;;;;;;12.90;99.90;;;;;;5073139;28;19988;-64
2023/05/18 07:46:11;;;;;;;;;;;12.90;99.90;;;;;;5074497;28;20009;-61
2023/05/18 07:48:36;;;;;;;;;;;13.00;99.90;;;;;;5089370;28;20061;-62
2023/05/18 07:51:02;;;;;;;;;;;13.10;99.90;;;;;;5081671;28;20044;-62
2023/05/18 07:53:27;;;;;;;;;;;13.10;99.90;;;;;;5091981;28;19984;-65
2023/05/18 07:55:53;;;;;;;;;;;13.10;99.90;;;;;;5076977;28;19996;-63
2023/05/18 07:58:18;;;;;;;;;;;13.20;99.90;;;;;;5085906;28;19986;-63
2023/05/18 08:00:44;;;;;;;;;;;13.10;99.90;;;;;;5069843;28;20012;-63
2023/05/18 08:03:10;;;;;;;;;;;13.20;99.90;;;;;;5071289;28;19985;-61
2023/05/18 08:05:35;;;;;;;;;;;13.30;99.90;;;;;;5084259;28;19990;-62
2023/05/18 08:08:01;;;;;;;;;;;13.30;99.90;;;;;;5075209;28;19993;-63
2023/05/18 08:10:27;;;;;;;;;;;13.30;99.90;;;;;;5073884;28;19989;-60
2023/05/18 08:12:52;;;;;;;;;;;13.20;99.90;;;;;;5084778;28;19992;-62
2023/05/18 08:15:18;;;;;;;;;;;13.10;99.90;;;;;;5082135;28;19985;-64
2023/05/18 08:17:43;;;;;;;;;;;13.20;99.90;;;;;;5080637;28;20355;-63
2023/05/18 08:20:09;;;;;;;;;;;13.30;99.90;;;;;;5077818;28;20101;-62
2023/05/18 08:22:35;;;;;;;;;;;13.20;99.90;;;;;;5079535;28;20004;-62
2023/05/18 08:25:00;;;;;;;;;;;13.30;99.90;;;;;;5080790;28;19992;-64
2023/05/18 08:27:27;;;;;;;;;;;13.40;99.90;;;;;;5090200;28;20095;-63
2023/05/18 08:29:52;;;;;;;;;;;13.30;99.90;;;;;;5089659;28;19989;-62
2023/05/18 08:32:18;;;;;;;;;;;13.30;99.90;;;;;;5091802;28;20316;-64
2023/05/18 08:34:43;;;;;;;;;;;13.20;99.90;;;;;;5081096;28;20051;-60
2023/05/18 08:37:09;;;;;;;;;;;13.20;99.90;;;;;;5079865;28;19993;-64
2023/05/18 08:39:36;;;;;;;;;;;13.20;99.90;;;;;;5083147;28;20008;-64
2023/05/18 08:42:02;;;;;;;;;;;13.10;99.90;;;;;;5094454;28;20069;-65
2023/05/18 08:44:33;;;;;;;;;;;13.30;99.90;;;;;;5094012;28;19989;-64
2023/05/18 08:46:59;;;;;;;;;;;13.50;99.90;;;;;;5096391;28;20005;-66
2023/05/18 08:49:25;;;;;;;;;;;13.50;99.90;;;;;;5083375;28;20535;-64
2023/05/18 08:51:54;;;;;;;;;;;13.50;99.90;;;;;;5081382;28;20052;-63
2023/05/18 08:54:21;;;;;;;;;;;13.60;99.90;;;;;;5084270;28;19985;-65
2023/05/18 08:56:51;;;;;;;;;;;13.70;99.90;;;;;;5101883;28;19989;-65
2023/05/18 08:59:24;;;;;;;;;;;13.80;99.90;;;;;;5073542;28;20367;-66
2023/05/18 09:01:50;;;;;;;;;;;14.00;99.90;;;;;;5090334;28;20004;-63
2023/05/18 09:04:17;;;;;;;;;;;14.10;99.90;;;;;;5076574;28;19997;-63
2023/05/18 09:06:43;;;;;;;;;;;14.10;99.90;;;;;;5074009;28;20138;-63
2023/05/18 09:09:09;;;;;;;;;;;14.10;99.90;;;;;;5077959;28;20351;-63
2023/05/18 09:11:35;;;;;;;;;;;14.10;99.90;;;;;;5075020;28;19982;-66
2023/05/18 09:14:01;;;;;;;;;;;14.10;99.90;;;;;;5075135;28;19985;-65
2023/05/18 09:16:27;;;;;;;;;;;14.10;99.90;;;;;;5089292;28;19996;-63
2023/05/18 09:18:53;;;;;;;;;;;13.90;99.90;;;;;;5088036;28;20040;-64
2023/05/18 09:21:19;;;;;;;;;;;13.80;99.90;;;;;;5086089;28;20367;-63
2023/05/18 09:23:46;;;;;;;;;;;13.80;99.90;;;;;;5088402;28;19992;-64
2023/05/18 09:26:12;;;;;;;;;;;13.80;99.90;;;;;;5094125;28;20009;-64
2023/05/18 09:28:39;;;;;;;;;;;13.90;99.90;;;;;;5080840;28;20043;-62
2023/05/18 09:31:18;;;;;;;;;;;14.00;99.90;;;;;;5079515;28;20329;-63
2023/05/18 09:33:45;;;;;;;;;;;13.90;99.90;;;;;;5082720;28;19989;-63
2023/05/18 09:36:11;;;;;;;;;;;13.80;99.90;;;;;;5087769;28;19993;-61
2023/05/18 09:38:37;;;;;;;;;;;13.60;99.90;;;;;;5090505;28;20021;-66
2023/05/18 09:41:02;;;;;;;;;;;13.60;99.90;;;;;;5095315;28;19988;-66
2023/05/18 09:43:28;;;;;;;;;;;13.60;99.90;;;;;;5093588;28;20425;-65
2023/05/18 09:45:53;;;;;;;;;;;13.70;99.90;;;;;;5083600;28;20458;-65
2023/05/18 09:48:20;;;;;;;;;;;13.60;99.90;;;;;;5084192;28;19989;-65
2023/05/18 09:50:46;;;;;;;;;;;13.70;99.90;;;;;;5080662;28;19993;-66
2023/05/18 09:53:12;;;;;;;;;;;13.80;99.90;;;;;;5080162;28;20640;-64
2023/05/18 09:55:45;;;;;;;;;;;13.90;99.90;;;;;;5069958;28;19993;-62
2023/05/18 09:58:11;;;;;;;;;;;13.80;99.90;;;;;;5075843;28;19989;-63
2023/05/18 10:00:40;;;;;;;;;;;13.90;99.90;;;;;;5071707;28;20041;-63
2023/05/18 10:03:15;;;;;;;;;;;14.10;99.90;;;;;;5072776;28;20455;-63
2023/05/18 10:05:40;;;;;;;;;;;14.10;99.90;;;;;;5071314;28;20362;-63
2023/05/18 10:08:06;;;;;;;;;;;14.30;99.90;;;;;;5073435;28;20269;-65
2023/05/18 10:10:36;;;;;;;;;;;14.50;99.90;;;;;;5076548;28;19990;-64
2023/05/18 10:13:03;;;;;;;;;;;14.60;99.90;;;;;;5081253;28;20020;-66
2023/05/18 10:15:29;;;;;;;;;;;14.50;99.90;;;;;;5086451;28;20087;-65
2023/05/18 10:17:56;;;;;;;;;;;14.50;99.90;;;;;;5080735;28;20099;-67
2023/05/18 10:20:28;;;;;;;;;;;14.40;99.90;;;;;;5086656;28;19999;-66
2023/05/18 10:22:54;;;;;;;;;;;14.40;99.90;;;;;;5090303;28;20076;-65
2023/05/18 10:25:21;;;;;;;;;;;14.40;99.90;;;;;;5073892;28;19993;-64
2023/05/18 10:27:54;;;;;;;;;;;14.50;99.90;;;;;;5088044;28;20049;-64
2023/05/18 10:30:21;;;;;;;;;;;14.70;99.90;;;;;;5087795;28;20001;-63
2023/05/18 10:32:47;;;;;;;;;;;14.70;99.90;;;;;;5082178;28;20474;-64
2023/05/18 10:35:13;;;;;;;;;;;14.60;99.90;;;;;;5078516;28;20030;-63
2023/05/18 10:37:43;;;;;;;;;;;14.50;99.90;;;;;;5091953;28;20025;-65
2023/05/18 10:40:08;;;;;;;;;;;14.50;99.90;;;;;;5091264;28;19985;-62
2023/05/18 10:42:34;;;;;;;;;;;14.50;99.90;;;;;;5094658;28;19981;-63
2023/05/18 10:45:00;;;;;;;;;;;14.50;99.90;;;;;;5092492;28;20436;-61
2023/05/18 10:47:26;;;;;;;;;;;14.50;99.90;;;;;;5090546;28;20009;-61
2023/05/18 10:49:52;;;;;;;;;;;14.50;99.90;;;;;;5092549;28;20070;-61
2023/05/18 10:52:18;;;;;;;;;;;14.50;99.90;;;;;;5092786;28;20020;-61
2023/05/18 10:54:44;;;;;;;;;;;14.60;99.90;;;;;;5091290;28;20301;-60
2023/05/18 10:57:12;;;;;;;;;;;14.60;99.90;;;;;;5088883;28;19986;-61
2023/05/18 10:59:42;;;;;;;;;;;14.60;99.90;;;;;;5092455;28;19995;-62
2023/05/18 11:02:09;;;;;;;;;;;14.70;99.90;;;;;;5090335;28;20001;-62
2023/05/18 11:04:37;;;;;;;;;;;14.80;99.90;;;;;;5093418;28;19981;-62
2023/05/18 11:07:03;;;;;;;;;;;14.70;99.90;;;;;;5095294;28;20004;-61
2023/05/18 11:09:29;;;;;;;;;;;14.70;99.90;;;;;;5094666;28;20080;-62
2023/05/18 11:12:00;;;;;;;;;;;14.60;99.90;;;;;;5092314;28;19996;-61
2023/05/18 11:14:26;;;;;;;;;;;14.50;99.90;;;;;;5091641;28;19993;-61
2023/05/18 11:16:52;;;;;;;;;;;14.50;99.90;;;;;;5093385;28;19999;-61
2023/05/18 11:19:19;;;;;;;;;;;14.60;99.90;;;;;;5094304;28;20077;-61
2023/05/18 11:21:45;;;;;;;;;;;14.60;99.90;;;;;;5092813;28;19988;-62
2023/05/18 11:24:30;;;;;;;;;;;14.60;99.90;;;;;;5091031;28;19985;-62
2023/05/18 11:27:05;;;;;;;;;;;14.60;99.90;;;;;;5091945;28;20020;-62
2023/05/18 11:29:48;;;;;;;;;;;14.50;99.90;;;;;;5089376;28;19988;-61
2023/05/18 11:32:26;;;;;;;;;;;14.40;99.90;;;;;;5091565;28;19995;-62
2023/05/18 11:34:52;;;;;;;;;;;14.40;99.90;;;;;;5091306;28;20012;-62
2023/05/18 11:37:36;;;;;;;;;;;14.40;99.90;;;;;;5091892;28;20021;-62
2023/05/18 11:40:04;;;;;;;;;;;14.30;99.90;;;;;;5088863;28;19986;-62
2023/05/18 11:42:33;;;;;;;;;;;14.30;99.90;;;;;;5079479;28;20028;-61
2023/05/18 11:45:09;;;;;;;;;;;14.20;99.90;;;;;;5091708;28;19993;-62
2023/05/18 11:47:35;;;;;;;;;;;14.30;99.90;;;;;;5098076;28;20004;-62
2023/05/18 11:50:01;;;;;;;;;;;14.10;99.90;;;;;;5097053;28;19993;-63
2023/05/18 11:52:26;;;;;;;;;;;14.00;99.90;;;;;;5090053;28;19995;-62
2023/05/18 11:54:52;;;;;;;;;;;14.00;99.90;;;;;;5099062;28;20443;-62
2023/05/18 11:57:18;;;;;;;;;;;14.00;99.90;;;;;;5076942;28;19992;-62
2023/05/18 11:59:47;;;;;;;;;;;14.20;99.90;;;;;;5079694;28;19997;-61
2023/05/18 12:02:17;;;;;;;;;;;14.20;99.90;;;;;;5078044;28;20005;-62
2023/05/18 12:04:54;;;;;;;;;;;14.20;99.90;;;;;;5073577;28;20046;-62
2023/05/18 12:07:20;;;;;;;;;;;14.20;99.90;;;;;;5070505;28;20100;-61
2023/05/18 12:09:46;;;;;;;;;;;14.30;99.90;;;;;;5071331;28;19994;-61
2023/05/18 12:12:15;;;;;;;;;;;14.30;99.90;;;;;;5079115;28;19992;-62
2023/05/18 12:14:41;;;;;;;;;;;14.40;99.90;;;;;;5072904;28;19985;-62
2023/05/18 12:17:07;;;;;;;;;;;14.50;99.90;;;;;;5072612;28;20423;-62
2023/05/18 12:19:37;;;;;;;;;;;14.50;99.90;;;;;;5076715;28;20355;-62
2023/05/18 12:22:03;;;;;;;;;;;14.50;99.90;;;;;;5075905;28;20420;-62
2023/05/18 12:24:29;;;;;;;;;;;14.70;99.90;;;;;;5074514;28;20447;-62
2023/05/18 12:26:55;;;;;;;;;;;14.80;99.90;;;;;;5076775;28;20016;-62
2023/05/18 12:29:21;;;;;;;;;;;14.80;99.90;;;;;;5080422;28;20340;-62
2023/05/18 12:31:48;;;;;;;;;;;14.90;99.90;;;;;;5076028;28;19996;-61
2023/05/18 12:34:13;;;;;;;;;;;14.90;99.90;;;;;;5069344;28;20039;-62
2023/05/18 12:36:40;;;;;;;;;;;15.00;99.90;;;;;;5076533;28;20386;-62
2023/05/18 12:39:06;;;;;;;;;;;14.90;99.90;;;;;;5074839;28;20028;-62
2023/05/18 12:41:31;;;;;;;;;;;15.00;99.90;;;;;;5071864;28;19985;-62
2023/05/18 12:43:57;;;;;;;;;;;15.00;99.90;;;;;;5070866;28;19988;-62
2023/05/18 12:46:23;;;;;;;;;;;15.00;99.90;;;;;;5071398;28;20005;-61
2023/05/18 12:48:56;;;;;;;;;;;15.10;99.90;;;;;;5071286;28;20456;-61
2023/05/18 12:51:23;;;;;;;;;;;15.00;99.90;;;;;;5071278;28;19994;-61
2023/05/18 12:53:49;;;;;;;;;;;15.10;99.90;;;;;;5073382;28;20012;-61
2023/05/18 12:56:15;;;;;;;;;;;15.20;99.90;;;;;;5072638;28;19982;-61
2023/05/18 12:58:52;;;;;;;;;;;15.20;99.90;;;;;;5072639;28;20076;-61
2023/05/18 13:01:18;;;;;;;;;;;15.40;99.90;;;;;;5072856;28;19981;-61
2023/05/18 13:03:43;;;;;;;;;;;15.50;99.90;;;;;;5072218;28;19988;-61
2023/05/18 13:06:09;;;;;;;;;;;15.50;99.90;;;;;;5078538;28;20020;-61
2023/05/18 13:08:35;;;;;;;;;;;15.50;99.90;;;;;;5092379;28;20031;-61
2023/05/18 13:14:04;;;;;;;;;;;15.50;99.90;;;;;;5092927;28;20023;-61
2023/05/18 13:16:30;;;;;;;;;;;15.50;99.90;;;;;;5093251;28;19981;-61
2023/05/18 13:18:57;;;;;;;;;;;15.40;99.90;;;;;;5092982;28;20026;-61
2023/05/18 13:21:22;;;;;;;;;;;15.40;99.90;;;;;;5093471;28;19985;-61
2023/05/18 13:23:48;;;;;;;;;;;15.40;99.90;;;;;;5093423;28;20004;-61
2023/05/18 13:26:13;;;;;;;;;;;15.40;99.90;;;;;;5095445;28;20053;-61
2023/05/18 13:28:40;;;;;;;;;;;15.40;99.90;;;;;;5097244;28;19988;-61
2023/05/18 13:31:05;;;;;;;;;;;15.50;99.90;;;;;;5097412;28;19981;-61
2023/05/18 13:33:31;;;;;;;;;;;15.50;99.90;;;;;;5096936;28;20030;-61
2023/05/18 13:35:56;;;;;;;;;;;15.40;99.90;;;;;;5097060;28;19985;-61
2023/05/18 13:38:22;;;;;;;;;;;15.30;99.90;;;;;;5097015;28;20028;-61
2023/05/18 13:40:47;;;;;;;;;;;15.20;99.90;;;;;;5097516;28;19981;-61
2023/05/18 13:43:13;;;;;;;;;;;15.20;99.90;;;;;;5096977;28;20046;-61
2023/05/18 13:45:38;;;;;;;;;;;15.20;99.90;;;;;;5096784;28;19981;-61
2023/05/18 13:48:08;;;;;;;;;;;15.40;99.90;;;;;;5096772;28;20104;-61
2023/05/18 13:50:34;;;;;;;;;;;15.50;99.90;;;;;;5096944;28;19982;-61
2023/05/18 13:53:00;;;;;;;;;;;15.60;99.90;;;;;;5096775;28;20348;-61
2023/05/18 13:55:25;;;;;;;;;;;15.60;99.90;;;;;;5096746;28;20075;-61
2023/05/18 13:57:51;;;;;;;;;;;15.70;99.90;;;;;;5096769;28;20452;-61
2023/05/18 14:00:17;;;;;;;;;;;15.80;99.90;;;;;;5096651;28;20023;-61
2023/05/18 14:02:42;;;;;;;;;;;15.90;99.90;;;;;;5096475;28;19988;-61
2023/05/18 14:05:09;;;;;;;;;;;16.10;99.90;;;;;;5096543;28;20431;-61
2023/05/18 14:07:35;;;;;;;;;;;16.10;99.90;;;;;;5096674;28;20153;-61
2023/05/18 14:10:01;;;;;;;;;;;16.10;99.90;;;;;;5096454;28;19982;-61
2023/05/18 14:12:27;;;;;;;;;;;16.30;99.90;;;;;;5096530;28;19981;-61
2023/05/18 14:14:53;;;;;;;;;;;16.40;99.90;;;;;;5096174;28;19989;-61
2023/05/18 14:17:18;;;;;;;;;;;16.50;99.90;;;;;;5096332;28;20012;-61